sensor_id;sensor_type;location;lat;lon;timestamp;temperature;humidity
10306;DHT22;5198;52.382;9.020;2024-03-17T00:00:12;5.70;99.90
10306;DHT22;5198;52.382;9.020;2024-03-17T00:04:48;5.60;99.90
10306;DHT22;5198;52.382;9.020;2024-03-17T00:08:52;5.60;99.90
10306;DHT22;5198;52.382;9.020;2024-03-17T00:12:55;5.50;99.90
10306;DHT22;5198;52.382;9.020;2024-03-17T00:17:02;5.40;99.90
10306;DHT22;5198;52.382;9.020;2024-03-17T00:21:05;5.40;99.90
10306;DHT22;5198;52.382;9.020;2024-03-17T00:25:09;5.30;99.90
10306;DHT22;5198;52.382;9.020;2024-03-17T00:29:12;5.30;99.90
10306;DHT22;5198;52.382;9.020;2024-03-17T00:33:16;5.20;99.90
10306;DHT22;5198;52.382;9.020;2024-03-17T00:37:20;5.20;99.90
10306;DHT22;5198;52.382;9.020;2024-03-17T00:41:24;5.10;99.90
10306;DHT22;5198;52.382;9.020;2024-03-17T00:45:27;5.10;99.90
10306;DHT22;5198;52.382;9.020;2024-03-17T00:49:30;5.10;99.90
10306;DHT22;5198;52.382;9.020;2024-03-17T00:53:34;5.10;99.90
10306;DHT22;5198;52.382;9.020;2024-03-17T00:57:38;5.00;99.90
10306;DHT22;5198;52.382;9.020;2024-03-17T01:01:41;5.00;99.90
10306;DHT22;5198;52.382;9.020;2024-03-17T01:05:45;4.90;99.90
10306;DHT22;5198;52.382;9.020;2024-03-17T01:09:50;4.90;99.90
10306;DHT22;5198;52.382;9.020;2024-03-17T01:13:54;4.90;99.90
10306;DHT22;5198;52.382;9.020;2024-03-17T01:17:57;4.80;99.90
10306;DHT22;5198;52.382;9.020;2024-03-17T01:22:01;4.80;99.90
10306;DHT22;5198;52.382;9.020;2024-03-17T01:26:04;4.70;99.90
10306;DHT22;5198;52.382;9.020;2024-03-17T01:30:10;4.70;99.90
10306;DHT22;5198;52.382;9.020;2024-03-17T01:34:13;4.70;99.90
10306;DHT22;5198;52.382;9.020;2024-03-17T01:38:16;4.70;99.90
10306;DHT22;5198;52.382;9.020;2024-03-17T01:42:19;4.60;99.90
10306;DHT22;5198;52.382;9.020;2024-03-17T01:46:24;4.60;99.90
10306;DHT22;5198;52.382;9.020;2024-03-17T01:50:31;4.50;99.90
10306;DHT22;5198;52.382;9.020;2024-03-17T01:54:34;4.50;99.90
10306;DHT22;5198;52.382;9.020;2024-03-17T01:58:38;4.50;99.90
10306;DHT22;5198;52.382;9.020;2024-03-17T02:02:43;4.40;99.90
10306;DHT22;5198;52.382;9.020;2024-03-17T02:06:45;4.40;99.90
10306;DHT22;5198;52.382;9.020;2024-03-17T02:10:52;4.30;99.90
10306;DHT22;5198;52.382;9.020;2024-03-17T02:14:55;4.20;99.90
10306;DHT22;5198;52.382;9.020;2024-03-17T02:19:02;4.20;99.90
10306;DHT22;5198;52.382;9.020;2024-03-17T02:23:06;4.20;99.90
10306;DHT22;5198;52.382;9.020;2024-03-17T02:27:09;4.10;99.90
10306;DHT22;5198;52.382;9.020;2024-03-17T02:31:15;4.10;99.90
10306;DHT22;5198;52.382;9.020;2024-03-17T02:35:18;4.10;99.90
10306;DHT22;5198;52.382;9.020;2024-03-17T02:39:23;4.10;99.90
10306;DHT22;5198;52.382;9.020;2024-03-17T02:43:36;4.10;99.90
10306;DHT22;5198;52.382;9.020;2024-03-17T02:47:39;4.10;99.90
10306;DHT22;5198;52.382;9.020;2024-03-17T02:51:42;4.10;99.90
10306;DHT22;5198;52.382;9.020;2024-03-17T02:55:46;4.10;99.90
10306;DHT22;5198;52.382;9.020;2024-03-17T02:59:49;4.00;99.90
10306;DHT22;5198;52.382;9.020;2024-03-17T03:03:54;3.90;99.90
10306;DHT22;5198;52.382;9.020;2024-03-17T03:07:56;3.90;99.90
10306;DHT22;5198;52.382;9.020;2024-03-17T03:12:01;3.90;99.90
10306;DHT22;5198;52.382;9.020;2024-03-17T03:16:05;3.80;99.90
10306;DHT22;5198;52.382;9.020;2024-03-17T03:20:09;3.80;99.90
10306;DHT22;5198;52.382;9.020;2024-03-17T03:24:14;3.70;99.90
10306;DHT22;5198;52.382;9.020;2024-03-17T03:28:18;3.70;99.90
10306;DHT22;5198;52.382;9.020;2024-03-17T03:32:21;3.70;99.90
10306;DHT22;5198;52.382;9.020;2024-03-17T03:36:24;3.70;99.90
10306;DHT22;5198;52.382;9.020;2024-03-17T03:40:27;3.60;99.90
10306;DHT22;5198;52.382;9.020;2024-03-17T03:44:31;3.60;99.90
10306;DHT22;5198;52.382;9.020;2024-03-17T03:48:35;3.50;99.90
10306;DHT22;5198;52.382;9.020;2024-03-17T03:52:38;3.50;99.90
10306;DHT22;5198;52.382;9.020;2024-03-17T03:56:43;3.40;99.90
10306;DHT22;5198;52.382;9.020;2024-03-17T04:00:47;3.40;99.90
10306;DHT22;5198;52.382;9.020;2024-03-17T04:04:49;3.40;99.90
10306;DHT22;5198;52.382;9.020;2024-03-17T04:08:52;3.30;99.90
10306;DHT22;5198;52.382;9.020;2024-03-17T04:12:55;3.30;99.90
10306;DHT22;5198;52.382;9.020;2024-03-17T04:17:01;3.30;99.90
10306;DHT22;5198;52.382;9.020;2024-03-17T04:21:05;3.20;99.90
10306;DHT22;5198;52.382;9.020;2024-03-17T04:25:09;3.20;99.90
10306;DHT22;5198;52.382;9.020;2024-03-17T04:29:12;3.10;99.90
10306;DHT22;5198;52.382;9.020;2024-03-17T04:33:16;3.10;99.90
10306;DHT22;5198;52.382;9.020;2024-03-17T04:37:19;3.10;99.90
10306;DHT22;5198;52.382;9.020;2024-03-17T04:41:22;3.10;99.90
10306;DHT22;5198;52.382;9.020;2024-03-17T04:45:25;3.10;99.90
10306;DHT22;5198;52.382;9.020;2024-03-17T04:49:29;3.10;99.90
10306;DHT22;5198;52.382;9.020;2024-03-17T04:53:32;3.10;99.90
10306;DHT22;5198;52.382;9.020;2024-03-17T04:57:34;3.10;99.90
10306;DHT22;5198;52.382;9.020;2024-03-17T05:01:37;3.00;99.90
10306;DHT22;5198;52.382;9.020;2024-03-17T05:05:41;3.00;99.90
10306;DHT22;5198;52.382;9.020;2024-03-17T05:09:49;2.90;99.90
10306;DHT22;5198;52.382;9.020;2024-03-17T05:13:53;2.90;99.90
10306;DHT22;5198;52.382;9.020;2024-03-17T05:17:56;2.90;99.90
10306;DHT22;5198;52.382;9.020;2024-03-17T05:22:01;2.90;99.90
10306;DHT22;5198;52.382;9.020;2024-03-17T05:26:04;2.80;99.90
10306;DHT22;5198;52.382;9.020;2024-03-17T05:30:08;2.80;99.90
10306;DHT22;5198;52.382;9.020;2024-03-17T05:34:13;2.80;99.90
10306;DHT22;5198;52.382;9.020;2024-03-17T05:38:18;2.70;99.90
10306;DHT22;5198;52.382;9.020;2024-03-17T05:42:22;2.70;99.90
10306;DHT22;5198;52.382;9.020;2024-03-17T05:46:25;2.70;99.90
10306;DHT22;5198;52.382;9.020;2024-03-17T05:50:29;2.70;99.90
10306;DHT22;5198;52.382;9.020;2024-03-17T05:54:34;2.80;99.90
10306;DHT22;5198;52.382;9.020;2024-03-17T05:58:37;2.80;99.90
10306;DHT22;5198;52.382;9.020;2024-03-17T06:02:40;2.80;99.90
10306;DHT22;5198;52.382;9.020;2024-03-17T06:06:43;2.80;99.90
10306;DHT22;5198;52.382;9.020;2024-03-17T06:10:49;2.90;99.90
10306;DHT22;5198;52.382;9.020;2024-03-17T06:14:52;2.90;99.90
10306;DHT22;5198;52.382;9.020;2024-03-17T06:18:54;2.90;99.90
10306;DHT22;5198;52.382;9.020;2024-03-17T06:22:59;2.90;99.90
10306;DHT22;5198;52.382;9.020;2024-03-17T06:27:04;3.00;99.90
10306;DHT22;5198;52.382;9.020;2024-03-17T06:31:09;3.00;99.90
10306;DHT22;5198;52.382;9.020;2024-03-17T06:35:11;3.10;99.90
10306;DHT22;5198;52.382;9.020;2024-03-17T06:39:16;3.20;99.90
10306;DHT22;5198;52.382;9.020;2024-03-17T06:43:23;3.30;99.90
10306;DHT22;5198;52.382;9.020;2024-03-17T06:47:26;3.40;99.90
10306;DHT22;5198;52.382;9.020;2024-03-17T06:51:29;3.50;99.90
10306;DHT22;5198;52.382;9.020;2024-03-17T06:55:31;3.60;99.90
10306;DHT22;5198;52.382;9.020;2024-03-17T06:59:40;3.70;99.90
10306;DHT22;5198;52.382;9.020;2024-03-17T07:03:44;3.90;99.90
10306;DHT22;5198;52.382;9.020;2024-03-17T07:07:52;4.00;99.90
10306;DHT22;5198;52.382;9.020;2024-03-17T07:11:55;4.20;99.90
10306;DHT22;5198;52.382;9.020;2024-03-17T07:15:59;4.40;99.90
10306;DHT22;5198;52.382;9.020;2024-03-17T07:20:03;4.60;99.90
10306;DHT22;5198;52.382;9.020;2024-03-17T07:24:10;4.80;99.90
10306;DHT22;5198;52.382;9.020;2024-03-17T07:28:13;5.10;99.90
10306;DHT22;5198;52.382;9.020;2024-03-17T07:32:18;5.40;99.90
10306;DHT22;5198;52.382;9.020;2024-03-17T07:36:21;5.70;99.90
10306;DHT22;5198;52.382;9.020;2024-03-17T07:40:24;6.00;99.90
10306;DHT22;5198;52.382;9.020;2024-03-17T07:44:26;6.30;99.90
10306;DHT22;5198;52.382;9.020;2024-03-17T07:48:32;6.70;99.90
10306;DHT22;5198;52.382;9.020;2024-03-17T07:52:35;7.00;99.90
10306;DHT22;5198;52.382;9.020;2024-03-17T07:56:38;7.30;99.90
10306;DHT22;5198;52.382;9.020;2024-03-17T08:00:42;7.50;99.90
10306;DHT22;5198;52.382;9.020;2024-03-17T08:04:46;7.90;99.90
10306;DHT22;5198;52.382;9.020;2024-03-17T08:08:50;8.10;99.90
10306;DHT22;5198;52.382;9.020;2024-03-17T08:12:57;8.50;99.90
10306;DHT22;5198;52.382;9.020;2024-03-17T08:17:00;8.70;99.90
10306;DHT22;5198;52.382;9.020;2024-03-17T08:21:05;9.00;99.90
10306;DHT22;5198;52.382;9.020;2024-03-17T08:25:08;9.30;99.90
10306;DHT22;5198;52.382;9.020;2024-03-17T08:29:11;9.60;99.90
10306;DHT22;5198;52.382;9.020;2024-03-17T08:33:15;9.90;99.90
10306;DHT22;5198;52.382;9.020;2024-03-17T08:37:19;10.20;99.90
10306;DHT22;5198;52.382;9.020;2024-03-17T08:41:22;10.40;99.90
10306;DHT22;5198;52.382;9.020;2024-03-17T08:45:25;10.70;99.90
10306;DHT22;5198;52.382;9.020;2024-03-17T08:49:27;11.00;99.90
10306;DHT22;5198;52.382;9.020;2024-03-17T08:53:32;11.20;99.90
10306;DHT22;5198;52.382;9.020;2024-03-17T08:57:35;11.60;99.90
10306;DHT22;5198;52.382;9.020;2024-03-17T09:01:38;11.70;99.90
10306;DHT22;5198;52.382;9.020;2024-03-17T09:05:44;12.00;99.90
10306;DHT22;5198;52.382;9.020;2024-03-17T09:09:49;12.30;99.90
10306;DHT22;5198;52.382;9.020;2024-03-17T09:13:51;12.70;99.90
10306;DHT22;5198;52.382;9.020;2024-03-17T09:17:54;13.00;99.90
10306;DHT22;5198;52.382;9.020;2024-03-17T09:21:57;13.20;99.90
10306;DHT22;5198;52.382;9.020;2024-03-17T09:26:04;13.40;99.90
10306;DHT22;5198;52.382;9.020;2024-03-17T09:30:08;13.60;99.90
10306;DHT22;5198;52.382;9.020;2024-03-17T09:34:11;13.80;99.90
10306;DHT22;5198;52.382;9.020;2024-03-17T09:38:14;14.00;99.90
10306;DHT22;5198;52.382;9.020;2024-03-17T09:42:20;14.20;99.90
10306;DHT22;5198;52.382;9.020;2024-03-17T09:46:24;14.20;99.90
10306;DHT22;5198;52.382;9.020;2024-03-17T09:50:27;14.50;99.90
10306;DHT22;5198;52.382;9.020;2024-03-17T09:54:30;14.70;99.90
10306;DHT22;5198;52.382;9.020;2024-03-17T09:58:35;14.90;99.90
10306;DHT22;5198;52.382;9.020;2024-03-17T10:02:42;15.10;99.90
10306;DHT22;5198;52.382;9.020;2024-03-17T10:06:46;15.20;99.90
10306;DHT22;5198;52.382;9.020;2024-03-17T10:10:52;15.40;99.90
10306;DHT22;5198;52.382;9.020;2024-03-17T10:15:01;15.60;99.90
10306;DHT22;5198;52.382;9.020;2024-03-17T10:19:08;15.80;99.90
10306;DHT22;5198;52.382;9.020;2024-03-17T10:23:11;15.90;99.90
10306;DHT22;5198;52.382;9.020;2024-03-17T10:27:16;16.10;99.90
10306;DHT22;5198;52.382;9.020;2024-03-17T10:31:20;16.40;99.90
10306;DHT22;5198;52.382;9.020;2024-03-17T10:35:28;16.60;99.90
10306;DHT22;5198;52.382;9.020;2024-03-17T10:39:31;16.80;99.90
10306;DHT22;5198;52.382;9.020;2024-03-17T10:43:35;17.00;99.90
10306;DHT22;5198;52.382;9.020;2024-03-17T10:47:45;17.30;99.90
10306;DHT22;5198;52.382;9.020;2024-03-17T10:51:51;17.40;99.90
10306;DHT22;5198;52.382;9.020;2024-03-17T10:56:03;17.50;99.90
10306;DHT22;5198;52.382;9.020;2024-03-17T11:00:08;17.70;99.90
10306;DHT22;5198;52.382;9.020;2024-03-17T11:04:15;17.70;99.90
10306;DHT22;5198;52.382;9.020;2024-03-17T11:08:18;17.90;99.90
10306;DHT22;5198;52.382;9.020;2024-03-17T11:12:41;18.00;99.90
10306;DHT22;5198;52.382;9.020;2024-03-17T11:16:46;18.00;99.90
10306;DHT22;5198;52.382;9.020;2024-03-17T11:20:58;18.20;99.90
10306;DHT22;5198;52.382;9.020;2024-03-17T11:25:36;18.30;99.90
10306;DHT22;5198;52.382;9.020;2024-03-17T11:29:39;18.30;99.90
10306;DHT22;5198;52.382;9.020;2024-03-17T11:33:48;18.40;99.90
10306;DHT22;5198;52.382;9.020;2024-03-17T11:37:53;18.50;99.90
10306;DHT22;5198;52.382;9.020;2024-03-17T11:42:04;18.70;99.90
10306;DHT22;5198;52.382;9.020;2024-03-17T11:46:13;18.80;99.90
10306;DHT22;5198;52.382;9.020;2024-03-17T11:50:16;18.90;99.90
10306;DHT22;5198;52.382;9.020;2024-03-17T11:54:22;18.90;99.90
10306;DHT22;5198;52.382;9.020;2024-03-17T11:58:26;18.90;99.90
10306;DHT22;5198;52.382;9.020;2024-03-17T12:02:30;18.90;99.90
10306;DHT22;5198;52.382;9.020;2024-03-17T12:06:33;19.00;99.90
10306;DHT22;5198;52.382;9.020;2024-03-17T12:10:47;18.90;99.90
10306;DHT22;5198;52.382;9.020;2024-03-17T12:14:51;18.80;99.90
10306;DHT22;5198;52.382;9.020;2024-03-17T12:19:06;18.90;99.90
10306;DHT22;5198;52.382;9.020;2024-03-17T12:23:10;18.90;99.90
10306;DHT22;5198;52.382;9.020;2024-03-17T12:27:19;18.90;99.90
10306;DHT22;5198;52.382;9.020;2024-03-17T12:31:22;18.90;99.90
10306;DHT22;5198;52.382;9.020;2024-03-17T12:35:26;18.90;99.90
10306;DHT22;5198;52.382;9.020;2024-03-17T12:39:30;19.00;99.90
10306;DHT22;5198;52.382;9.020;2024-03-17T12:43:34;19.10;99.90
10306;DHT22;5198;52.382;9.020;2024-03-17T12:47:38;19.20;99.90
10306;DHT22;5198;52.382;9.020;2024-03-17T12:52:14;19.00;99.90
10306;DHT22;5198;52.382;9.020;2024-03-17T12:56:23;18.90;99.90
10306;DHT22;5198;52.382;9.020;2024-03-17T13:00:44;18.90;99.90
10306;DHT22;5198;52.382;9.020;2024-03-17T13:05:04;18.70;99.90
10306;DHT22;5198;52.382;9.020;2024-03-17T13:09:33;18.60;99.90
10306;DHT22;5198;52.382;9.020;2024-03-17T13:13:36;18.50;99.90
10306;DHT22;5198;52.382;9.020;2024-03-17T13:17:41;18.40;99.90
10306;DHT22;5198;52.382;9.020;2024-03-17T13:21:44;18.40;99.90
10306;DHT22;5198;52.382;9.020;2024-03-17T13:25:47;18.10;99.90
10306;DHT22;5198;52.382;9.020;2024-03-17T13:29:50;18.00;99.90
10306;DHT22;5198;52.382;9.020;2024-03-17T13:33:54;17.80;99.90
10306;DHT22;5198;52.382;9.020;2024-03-17T13:37:57;17.70;99.90
10306;DHT22;5198;52.382;9.020;2024-03-17T13:42:01;17.60;99.90
10306;DHT22;5198;52.382;9.020;2024-03-17T13:46:05;17.50;99.90
10306;DHT22;5198;52.382;9.020;2024-03-17T13:50:10;17.40;99.90
10306;DHT22;5198;52.382;9.020;2024-03-17T13:54:39;17.40;99.90
10306;DHT22;5198;52.382;9.020;2024-03-17T13:58:41;17.40;99.90
10306;DHT22;5198;52.382;9.020;2024-03-17T14:04:57;17.20;99.90
10306;DHT22;5198;52.382;9.020;2024-03-17T14:09:03;17.10;99.90
10306;DHT22;5198;52.382;9.020;2024-03-17T14:13:10;17.00;99.90
10306;DHT22;5198;52.382;9.020;2024-03-17T14:17:15;16.80;99.90
10306;DHT22;5198;52.382;9.020;2024-03-17T14:21:22;16.70;99.90
10306;DHT22;5198;52.382;9.020;2024-03-17T14:25:27;16.50;99.90
10306;DHT22;5198;52.382;9.020;2024-03-17T14:29:32;16.30;99.90
10306;DHT22;5198;52.382;9.020;2024-03-17T14:33:37;16.20;99.90
10306;DHT22;5198;52.382;9.020;2024-03-17T14:37:45;16.10;99.90
10306;DHT22;5198;52.382;9.020;2024-03-17T14:41:53;16.00;99.90
10306;DHT22;5198;52.382;9.020;2024-03-17T14:45:57;15.80;99.90
10306;DHT22;5198;52.382;9.020;2024-03-17T14:50:02;15.70;99.90
10306;DHT22;5198;52.382;9.020;2024-03-17T14:54:10;15.60;99.90
10306;DHT22;5198;52.382;9.020;2024-03-17T14:58:16;15.50;99.90
10306;DHT22;5198;52.382;9.020;2024-03-17T15:02:21;15.50;99.90
10306;DHT22;5198;52.382;9.020;2024-03-17T15:06:28;15.40;99.90
10306;DHT22;5198;52.382;9.020;2024-03-17T15:10:35;15.30;99.90
10306;DHT22;5198;52.382;9.020;2024-03-17T15:14:41;15.20;99.90
10306;DHT22;5198;52.382;9.020;2024-03-17T15:18:45;15.10;99.90
10306;DHT22;5198;52.382;9.020;2024-03-17T15:22:50;15.10;99.90
10306;DHT22;5198;52.382;9.020;2024-03-17T15:26:58;14.90;99.90
10306;DHT22;5198;52.382;9.020;2024-03-17T15:31:04;14.90;99.90
10306;DHT22;5198;52.382;9.020;2024-03-17T15:35:09;14.80;99.90
10306;DHT22;5198;52.382;9.020;2024-03-17T15:39:16;14.60;99.90
10306;DHT22;5198;52.382;9.020;2024-03-17T15:43:24;14.60;99.90
10306;DHT22;5198;52.382;9.020;2024-03-17T15:47:30;14.50;99.90
10306;DHT22;5198;52.382;9.020;2024-03-17T15:51:34;14.40;99.90
10306;DHT22;5198;52.382;9.020;2024-03-17T15:55:39;14.30;99.90
10306;DHT22;5198;52.382;9.020;2024-03-17T15:59:48;14.20;99.90
10306;DHT22;5198;52.382;9.020;2024-03-17T16:03:55;14.10;99.90
10306;DHT22;5198;52.382;9.020;2024-03-17T16:08:00;14.00;99.90
10306;DHT22;5198;52.382;9.020;2024-03-17T16:12:06;13.90;99.90
10306;DHT22;5198;52.382;9.020;2024-03-17T16:16:18;13.80;99.90
10306;DHT22;5198;52.382;9.020;2024-03-17T16:20:56;13.70;99.90
10306;DHT22;5198;52.382;9.020;2024-03-17T16:25:04;13.50;99.90
10306;DHT22;5198;52.382;9.020;2024-03-17T16:29:11;13.50;99.90
10306;DHT22;5198;52.382;9.020;2024-03-17T16:33:20;13.40;99.90
10306;DHT22;5198;52.382;9.020;2024-03-17T16:37:26;13.30;99.90
10306;DHT22;5198;52.382;9.020;2024-03-17T16:41:32;13.30;99.90
10306;DHT22;5198;52.382;9.020;2024-03-17T16:45:41;13.20;99.90
10306;DHT22;5198;52.382;9.020;2024-03-17T16:49:52;13.10;99.90
10306;DHT22;5198;52.382;9.020;2024-03-17T16:54:03;13.00;99.90
10306;DHT22;5198;52.382;9.020;2024-03-17T16:58:09;12.90;99.90
10306;DHT22;5198;52.382;9.020;2024-03-17T17:02:15;12.90;99.90
10306;DHT22;5198;52.382;9.020;2024-03-17T17:06:23;12.70;99.90
10306;DHT22;5198;52.382;9.020;2024-03-17T17:10:29;12.70;99.90
10306;DHT22;5198;52.382;9.020;2024-03-17T17:14:33;12.60;99.90
10306;DHT22;5198;52.382;9.020;2024-03-17T17:18:48;12.50;99.90
10306;DHT22;5198;52.382;9.020;2024-03-17T17:22:56;12.40;99.90
10306;DHT22;5198;52.382;9.020;2024-03-17T17:27:04;12.30;99.90
10306;DHT22;5198;52.382;9.020;2024-03-17T17:31:11;12.20;99.90
10306;DHT22;5198;52.382;9.020;2024-03-17T17:35:16;12.10;99.90
10306;DHT22;5198;52.382;9.020;2024-03-17T17:39:23;12.00;99.90
10306;DHT22;5198;52.382;9.020;2024-03-17T17:43:28;12.00;99.90
10306;DHT22;5198;52.382;9.020;2024-03-17T17:47:32;11.90;99.90
10306;DHT22;5198;52.382;9.020;2024-03-17T17:51:40;11.80;99.90
10306;DHT22;5198;52.382;9.020;2024-03-17T17:55:47;11.70;99.90
10306;DHT22;5198;52.382;9.020;2024-03-17T17:59:52;11.60;99.90
10306;DHT22;5198;52.382;9.020;2024-03-17T18:03:57;11.50;99.90
10306;DHT22;5198;52.382;9.020;2024-03-17T18:08:05;11.50;99.90
10306;DHT22;5198;52.382;9.020;2024-03-17T18:12:18;11.40;99.90
10306;DHT22;5198;52.382;9.020;2024-03-17T18:16:23;11.30;99.90
10306;DHT22;5198;52.382;9.020;2024-03-17T18:20:30;11.30;99.90
10306;DHT22;5198;52.382;9.020;2024-03-17T18:24:35;11.20;99.90
10306;DHT22;5198;52.382;9.020;2024-03-17T18:28:45;11.10;99.90
10306;DHT22;5198;52.382;9.020;2024-03-17T18:32:49;11.10;99.90
10306;DHT22;5198;52.382;9.020;2024-03-17T18:36:54;11.00;99.90
10306;DHT22;5198;52.382;9.020;2024-03-17T18:41:00;11.00;99.90
10306;DHT22;5198;52.382;9.020;2024-03-17T18:45:09;10.90;99.90
10306;DHT22;5198;52.382;9.020;2024-03-17T18:49:15;10.80;99.90
10306;DHT22;5198;52.382;9.020;2024-03-17T18:53:22;10.80;99.90
10306;DHT22;5198;52.382;9.020;2024-03-17T18:57:28;10.80;99.90
10306;DHT22;5198;52.382;9.020;2024-03-17T19:01:36;10.70;99.90
10306;DHT22;5198;52.382;9.020;2024-03-17T19:05:40;10.70;99.90
10306;DHT22;5198;52.382;9.020;2024-03-17T19:09:47;10.70;99.90
10306;DHT22;5198;52.382;9.020;2024-03-17T19:13:51;10.60;99.90
10306;DHT22;5198;52.382;9.020;2024-03-17T19:17:59;10.60;99.90
10306;DHT22;5198;52.382;9.020;2024-03-17T19:22:04;10.60;99.90
10306;DHT22;5198;52.382;9.020;2024-03-17T19:26:10;10.60;99.90
10306;DHT22;5198;52.382;9.020;2024-03-17T19:30:18;10.50;99.90
10306;DHT22;5198;52.382;9.020;2024-03-17T19:34:26;10.50;99.90
10306;DHT22;5198;52.382;9.020;2024-03-17T19:38:31;10.50;99.90
10306;DHT22;5198;52.382;9.020;2024-03-17T19:42:36;10.50;99.90
10306;DHT22;5198;52.382;9.020;2024-03-17T19:46:41;10.40;99.90
10306;DHT22;5198;52.382;9.020;2024-03-17T19:50:48;10.50;99.90
10306;DHT22;5198;52.382;9.020;2024-03-17T19:54:54;10.50;99.90
10306;DHT22;5198;52.382;9.020;2024-03-17T19:58:58;10.40;99.90
10306;DHT22;5198;52.382;9.020;2024-03-17T20:03:03;10.40;99.90
10306;DHT22;5198;52.382;9.020;2024-03-17T20:07:11;10.30;99.90
10306;DHT22;5198;52.382;9.020;2024-03-17T20:11:18;10.30;99.90
10306;DHT22;5198;52.382;9.020;2024-03-17T20:15:24;10.30;99.90
10306;DHT22;5198;52.382;9.020;2024-03-17T20:19:28;10.30;99.90
10306;DHT22;5198;52.382;9.020;2024-03-17T20:23:37;10.20;99.90
10306;DHT22;5198;52.382;9.020;2024-03-17T20:27:43;10.20;99.90
10306;DHT22;5198;52.382;9.020;2024-03-17T20:31:47;10.20;99.90
10306;DHT22;5198;52.382;9.020;2024-03-17T20:35:52;10.20;99.90
10306;DHT22;5198;52.382;9.020;2024-03-17T20:40:01;10.10;99.90
10306;DHT22;5198;52.382;9.020;2024-03-17T20:44:08;10.10;99.90
10306;DHT22;5198;52.382;9.020;2024-03-17T20:48:16;10.10;99.90
10306;DHT22;5198;52.382;9.020;2024-03-17T20:52:22;10.00;99.90
10306;DHT22;5198;52.382;9.020;2024-03-17T20:56:31;10.00;99.90
10306;DHT22;5198;52.382;9.020;2024-03-17T21:00:37;10.00;99.90
10306;DHT22;5198;52.382;9.020;2024-03-17T21:04:43;10.00;99.90
10306;DHT22;5198;52.382;9.020;2024-03-17T21:08:49;9.90;99.90
10306;DHT22;5198;52.382;9.020;2024-03-17T21:12:57;9.90;99.90
10306;DHT22;5198;52.382;9.020;2024-03-17T21:17:03;9.90;99.90
10306;DHT22;5198;52.382;9.020;2024-03-17T21:21:09;9.80;99.90
10306;DHT22;5198;52.382;9.020;2024-03-17T21:25:16;9.80;99.90
10306;DHT22;5198;52.382;9.020;2024-03-17T21:29:24;9.80;99.90
10306;DHT22;5198;52.382;9.020;2024-03-17T21:33:31;9.80;99.90
10306;DHT22;5198;52.382;9.020;2024-03-17T21:37:37;9.70;99.90
10306;DHT22;5198;52.382;9.020;2024-03-17T21:41:42;9.70;99.90
10306;DHT22;5198;52.382;9.020;2024-03-17T21:45:50;9.70;99.90
10306;DHT22;5198;52.382;9.020;2024-03-17T21:49:55;9.60;99.90
10306;DHT22;5198;52.382;9.020;2024-03-17T21:54:01;9.60;99.90
10306;DHT22;5198;52.382;9.020;2024-03-17T21:58:05;9.60;99.90
10306;DHT22;5198;52.382;9.020;2024-03-17T22:02:13;9.50;99.90
10306;DHT22;5198;52.382;9.020;2024-03-17T22:06:23;9.50;99.90
10306;DHT22;5198;52.382;9.020;2024-03-17T22:10:31;9.40;99.90
10306;DHT22;5198;52.382;9.020;2024-03-17T22:14:36;9.40;99.90
10306;DHT22;5198;52.382;9.020;2024-03-17T22:18:46;9.30;99.90
10306;DHT22;5198;52.382;9.020;2024-03-17T22:22:51;9.30;99.90
10306;DHT22;5198;52.382;9.020;2024-03-17T22:26:57;9.20;99.90
10306;DHT22;5198;52.382;9.020;2024-03-17T22:31:03;9.20;99.90
10306;DHT22;5198;52.382;9.020;2024-03-17T22:35:11;9.20;99.90
10306;DHT22;5198;52.382;9.020;2024-03-17T22:39:17;9.10;99.90
10306;DHT22;5198;52.382;9.020;2024-03-17T22:43:24;9.10;99.90
10306;DHT22;5198;52.382;9.020;2024-03-17T22:47:28;9.10;99.90
10306;DHT22;5198;52.382;9.020;2024-03-17T22:51:35;9.00;99.90
10306;DHT22;5198;52.382;9.020;2024-03-17T22:55:40;9.00;99.90
10306;DHT22;5198;52.382;9.020;2024-03-17T22:59:45;8.90;99.90
10306;DHT22;5198;52.382;9.020;2024-03-17T23:03:49;8.90;99.90
10306;DHT22;5198;52.382;9.020;2024-03-17T23:07:57;8.80;99.90
10306;DHT22;5198;52.382;9.020;2024-03-17T23:12:01;8.80;99.90
10306;DHT22;5198;52.382;9.020;2024-03-17T23:16:08;8.70;99.90
10306;DHT22;5198;52.382;9.020;2024-03-17T23:20:13;8.70;99.90
10306;DHT22;5198;52.382;9.020;2024-03-17T23:24:20;8.60;99.90
10306;DHT22;5198;52.382;9.020;2024-03-17T23:28:25;8.60;99.90
10306;DHT22;5198;52.382;9.020;2024-03-17T23:32:30;8.60;99.90
10306;DHT22;5198;52.382;9.020;2024-03-17T23:36:34;8.60;99.90
10306;DHT22;5198;52.382;9.020;2024-03-17T23:40:41;8.50;99.90
10306;DHT22;5198;52.382;9.020;2024-03-17T23:44:46;8.40;99.90
10306;DHT22;5198;52.382;9.020;2024-03-17T23:48:52;8.40;99.90
10306;DHT22;5198;52.382;9.020;2024-03-17T23:52:56;8.40;99.90
10306;DHT22;5198;52.382;9.020;2024-03-17T23:57:04;8.40;99.90
